createdAt,value
2022-09-28T00:00:06.740Z,7.50
2022-09-28T00:01:06.725Z,7.53
2022-09-28T00:02:06.809Z,7.50
2022-09-28T00:03:06.715Z,7.50
2022-09-28T00:04:06.684Z,7.49
2022-09-28T00:05:06.675Z,7.52
2022-09-28T00:06:06.662Z,7.52
2022-09-28T00:07:06.624Z,7.53
2022-09-28T00:08:06.633Z,7.53
2022-09-28T00:09:07.607Z,7.53
2022-09-28T00:10:06.592Z,7.55
2022-09-28T00:11:06.596Z,7.55
2022-09-28T00:12:06.564Z,7.59
2022-09-28T00:13:06.564Z,7.60
2022-09-28T00:14:07.543Z,7.60
2022-09-28T00:15:06.526Z,7.60
2022-09-28T00:16:06.581Z,7.60
2022-09-28T00:17:06.503Z,7.62
2022-09-28T00:18:06.494Z,7.63
2022-09-28T00:19:06.487Z,7.66
2022-09-28T00:20:06.475Z,7.69
2022-09-28T00:21:06.904Z,7.71
2022-09-28T00:22:07.476Z,7.69
2022-09-28T00:23:06.437Z,7.72
2022-09-28T00:24:06.415Z,7.72
2022-09-28T00:25:06.455Z,7.72
2022-09-28T00:26:06.394Z,7.74
2022-09-28T00:27:06.365Z,7.74
2022-09-28T00:28:06.378Z,7.74
2022-09-28T00:29:06.376Z,7.72
2022-09-28T00:30:06.325Z,7.72
2022-09-28T00:31:06.416Z,7.72
2022-09-28T00:32:06.408Z,7.71
2022-09-28T00:33:06.288Z,7.71
2022-09-28T00:34:06.312Z,7.71
2022-09-28T00:35:06.256Z,7.63
2022-09-28T00:36:06.377Z,7.60
2022-09-28T00:37:06.224Z,7.60
2022-09-28T00:38:06.246Z,7.59
2022-09-28T00:39:06.197Z,7.62
2022-09-28T00:40:06.246Z,7.62
2022-09-28T00:41:06.196Z,7.62
2022-09-28T00:42:06.267Z,7.66
2022-09-28T00:43:06.151Z,7.63
2022-09-28T00:44:06.179Z,7.62
2022-09-28T00:45:06.124Z,7.62
2022-09-28T00:46:06.285Z,7.62
2022-09-28T00:47:06.110Z,7.60
2022-09-28T00:48:06.098Z,7.60
2022-09-28T00:49:06.067Z,7.60
2022-09-28T00:50:06.151Z,7.60
2022-09-28T00:51:06.069Z,7.62
2022-09-28T00:52:06.038Z,7.60
2022-09-28T00:53:06.027Z,7.60
2022-09-28T00:54:06.019Z,7.62
2022-09-28T00:55:06.083Z,7.60
2022-09-28T00:56:06.002Z,7.62
2022-09-28T00:57:05.982Z,7.62
2022-09-28T00:58:05.968Z,7.62
2022-09-28T00:59:05.951Z,7.62
2022-09-28T01:00:05.948Z,7.62
2022-09-28T01:01:05.959Z,7.62
2022-09-28T01:02:05.999Z,7.62
2022-09-28T01:03:05.888Z,7.60
2022-09-28T01:04:05.892Z,7.63
2022-09-28T01:05:05.876Z,7.62
2022-09-28T01:06:05.868Z,7.63
2022-09-28T01:07:05.851Z,7.63
2022-09-28T01:08:05.840Z,7.66
2022-09-28T01:09:05.810Z,7.66
2022-09-28T01:10:05.834Z,7.66
2022-09-28T01:11:05.798Z,7.63
2022-09-28T01:12:05.795Z,7.62
2022-09-28T01:13:05.749Z,7.60
2022-09-28T01:14:05.769Z,7.60
2022-09-28T01:15:05.752Z,7.62
2022-09-28T01:16:05.776Z,7.63
2022-09-28T01:17:05.711Z,7.66
2022-09-28T01:18:05.716Z,7.67
2022-09-28T01:19:05.678Z,7.66
2022-09-28T01:20:06.700Z,7.66
2022-09-28T01:21:05.679Z,7.63
2022-09-28T01:22:05.649Z,7.63
2022-09-28T01:23:05.631Z,7.63
2022-09-28T01:24:05.621Z,7.67
2022-09-28T01:25:05.595Z,7.66
2022-09-28T01:26:05.612Z,7.67
2022-09-28T01:27:05.604Z,7.67
2022-09-28T01:28:05.569Z,7.67
2022-09-28T01:29:05.561Z,7.67
2022-09-28T01:30:05.551Z,7.67
2022-09-28T01:31:05.553Z,7.67
2022-09-28T01:32:05.513Z,7.67
2022-09-28T01:33:05.494Z,7.69
2022-09-28T01:34:05.491Z,7.66
2022-09-28T01:35:05.489Z,7.63
2022-09-28T01:36:05.472Z,7.62
2022-09-28T01:37:05.441Z,7.60
2022-09-28T01:38:05.443Z,7.62
2022-09-28T01:39:05.419Z,7.60
2022-09-28T01:40:05.413Z,7.62
2022-09-28T01:41:05.404Z,7.66
2022-09-28T01:42:05.405Z,7.67
2022-09-28T01:43:05.363Z,7.67
2022-09-28T01:44:05.352Z,7.67
2022-09-28T01:45:05.367Z,7.63
2022-09-28T01:46:05.390Z,7.62
2022-09-28T01:47:05.310Z,7.62
2022-09-28T01:48:05.415Z,7.66
2022-09-28T01:49:05.343Z,7.63
2022-09-28T01:50:05.274Z,7.66
2022-09-28T01:51:05.282Z,7.63
2022-09-28T01:52:05.273Z,7.63
2022-09-28T01:53:05.244Z,7.63
2022-09-28T01:54:05.234Z,7.66
2022-09-28T01:55:05.216Z,7.66
2022-09-28T01:56:05.213Z,7.67
2022-09-28T01:57:05.184Z,7.67
2022-09-28T01:58:05.183Z,7.67
2022-09-28T01:59:05.153Z,7.67
2022-09-28T02:00:05.200Z,7.67
2022-09-28T02:01:05.240Z,7.66
2022-09-28T02:02:05.184Z,7.67
2022-09-28T02:03:05.113Z,7.71
2022-09-28T02:04:05.123Z,7.69
2022-09-28T02:05:05.089Z,7.69
2022-09-28T02:06:05.095Z,7.71
2022-09-28T02:07:05.055Z,7.69
2022-09-28T02:08:05.037Z,7.72
2022-09-28T02:09:05.021Z,7.72
2022-09-28T02:10:05.015Z,7.75
2022-09-28T02:11:05.005Z,7.75
2022-09-28T02:12:04.995Z,7.75
2022-09-28T02:13:04.987Z,7.75
2022-09-28T02:14:04.955Z,7.77
2022-09-28T02:15:04.944Z,7.75
2022-09-28T02:16:05.016Z,7.75
2022-09-28T02:17:04.923Z,7.74
2022-09-28T02:18:04.904Z,7.74
2022-09-28T02:19:04.916Z,7.74
2022-09-28T02:20:04.884Z,7.74
2022-09-28T02:21:05.866Z,7.74
2022-09-28T02:22:04.855Z,7.75
2022-09-28T02:23:04.854Z,7.75
2022-09-28T02:24:04.826Z,7.75
2022-09-28T02:25:04.806Z,7.75
2022-09-28T02:26:04.826Z,7.75
2022-09-28T02:27:04.795Z,7.77
2022-09-28T02:28:04.787Z,7.78
2022-09-28T02:29:04.766Z,7.77
2022-09-28T02:30:04.749Z,7.78
2022-09-28T02:31:04.764Z,7.77
2022-09-28T02:32:04.737Z,7.74
2022-09-28T02:33:04.718Z,7.72
2022-09-28T02:34:04.705Z,7.72
2022-09-28T02:35:04.679Z,7.75
2022-09-28T02:36:04.694Z,7.77
2022-09-28T02:37:04.658Z,7.78
2022-09-28T02:38:04.647Z,7.79
2022-09-28T02:39:04.643Z,7.81
2022-09-28T02:40:04.622Z,7.81
2022-09-28T02:41:04.606Z,7.84
2022-09-28T02:42:04.599Z,7.84
2022-09-28T02:43:04.598Z,7.85
2022-09-28T02:44:04.558Z,7.87
2022-09-28T02:45:04.557Z,7.85
2022-09-28T02:46:04.613Z,7.87
2022-09-28T02:47:04.532Z,7.87
2022-09-28T02:48:05.520Z,7.89
2022-09-28T02:49:30.396Z,7.89
2022-09-28T02:50:05.499Z,7.89
2022-09-28T02:51:04.488Z,7.90
2022-09-28T02:52:04.466Z,7.90
2022-09-28T02:53:05.450Z,7.93
2022-09-28T02:54:04.438Z,7.92
2022-09-28T02:55:04.430Z,7.92
2022-09-28T02:56:04.440Z,7.93
2022-09-28T02:57:04.402Z,7.93
2022-09-28T02:58:04.389Z,7.93
2022-09-28T02:59:04.366Z,7.93
2022-09-28T03:00:04.367Z,7.94
2022-09-28T03:01:04.517Z,7.94
2022-09-28T03:02:04.374Z,7.96
2022-09-28T03:03:04.336Z,7.96
2022-09-28T03:04:04.311Z,7.96
2022-09-28T03:05:04.333Z,7.97
2022-09-28T03:06:04.311Z,8.02
2022-09-28T03:07:04.270Z,8.04
2022-09-28T03:08:04.267Z,8.04
2022-09-28T03:09:04.242Z,8.07
2022-09-28T03:10:04.229Z,8.07
2022-09-28T03:11:04.211Z,8.04
2022-09-28T03:12:04.220Z,8.02
2022-09-28T03:13:04.193Z,8.00
2022-09-28T03:14:04.179Z,7.99
2022-09-28T03:15:05.161Z,7.96
2022-09-28T03:16:04.215Z,7.96
2022-09-28T03:17:04.134Z,7.94
2022-09-28T03:18:04.124Z,7.92
2022-09-28T03:19:04.115Z,7.92
2022-09-28T03:20:04.100Z,7.93
2022-09-28T03:21:04.081Z,7.93
2022-09-28T03:22:04.086Z,7.94
2022-09-28T03:23:23.939Z,7.94
2022-09-28T03:24:05.044Z,7.96
2022-09-28T03:25:04.044Z,7.94
2022-09-28T03:26:04.030Z,7.96
2022-09-28T03:27:04.002Z,7.96
2022-09-28T03:28:04.001Z,7.94
2022-09-28T03:29:03.982Z,7.93
2022-09-28T03:30:03.954Z,7.94
2022-09-28T03:31:03.994Z,7.94
2022-09-28T03:32:03.949Z,7.94
2022-09-28T03:33:03.939Z,7.97
2022-09-28T03:34:03.931Z,7.97
2022-09-28T03:35:03.927Z,7.97
2022-09-28T03:36:03.899Z,7.97
2022-09-28T03:37:03.873Z,7.99
2022-09-28T03:38:03.863Z,8.00
2022-09-28T03:39:03.862Z,8.00
2022-09-28T03:40:03.835Z,8.00
2022-09-28T03:41:03.927Z,8.00
2022-09-28T03:42:03.810Z,8.00
2022-09-28T03:43:03.805Z,8.00
2022-09-28T03:44:03.801Z,7.99
2022-09-28T03:45:03.774Z,8.00
2022-09-28T03:46:03.840Z,7.99
2022-09-28T03:47:03.764Z,8.00
2022-09-28T03:48:03.737Z,7.99
2022-09-28T03:49:03.724Z,7.99
2022-09-28T03:50:03.724Z,8.00
2022-09-28T04:03:21.211Z,8.11
2022-09-28T04:04:21.202Z,8.11
2022-09-28T04:05:21.190Z,8.12
2022-09-28T04:06:21.169Z,8.14
2022-09-28T04:07:21.151Z,8.14
2022-09-28T04:08:21.151Z,8.15
2022-09-28T04:09:21.126Z,8.17
2022-09-28T04:10:21.127Z,8.14
2022-09-28T04:11:21.122Z,8.14
2022-09-28T04:12:21.101Z,8.15
2022-09-28T04:13:21.073Z,8.14
2022-09-28T04:14:21.117Z,8.12
2022-09-28T04:15:21.063Z,8.14
2022-09-28T04:16:21.120Z,8.17
2022-09-28T04:17:21.012Z,8.20
2022-09-28T04:18:28.512Z,8.20
2022-09-28T04:19:20.991Z,8.21
2022-09-28T04:20:21.102Z,8.21
2022-09-28T04:21:21.032Z,8.22
2022-09-28T04:22:21.011Z,8.26
2022-09-28T04:23:21.011Z,8.28
2022-09-28T04:24:21.022Z,8.32
2022-09-28T04:25:21.033Z,8.35
2022-09-28T04:26:20.973Z,8.39
2022-09-28T04:27:20.892Z,8.42
2022-09-28T04:28:20.954Z,8.42
2022-09-28T04:30:31.096Z,8.40
2022-09-28T04:31:31.155Z,8.37
2022-09-28T04:32:31.118Z,8.37
2022-09-28T04:33:31.108Z,8.39
2022-09-28T04:34:35.732Z,8.37
2022-09-28T04:35:32.076Z,8.36
2022-09-28T04:36:31.028Z,8.35
2022-09-28T04:37:31.037Z,8.36
2022-09-28T04:38:51.919Z,8.37
2022-09-28T04:39:31.965Z,8.39
2022-09-28T04:40:34.198Z,8.40
2022-09-28T04:41:30.969Z,8.42
2022-09-28T04:42:30.983Z,8.42
2022-09-28T04:43:30.996Z,8.42
2022-09-28T04:44:30.987Z,8.40
2022-09-28T04:45:30.957Z,8.40
2022-09-28T04:46:31.937Z,8.40
2022-09-28T04:47:30.907Z,8.39
2022-09-28T04:48:30.916Z,8.39
2022-09-28T04:49:30.917Z,8.36
2022-09-28T04:50:30.867Z,8.35
2022-09-28T04:51:30.833Z,8.32
2022-09-28T04:52:30.816Z,8.32
2022-09-28T04:53:30.847Z,8.30
2022-09-28T04:54:30.848Z,8.30
2022-09-28T04:55:30.788Z,8.32
2022-09-28T04:56:30.780Z,8.30
2022-09-28T04:57:30.770Z,8.32
2022-09-28T04:58:52.875Z,8.32
2022-09-28T04:59:30.719Z,8.33
2022-09-28T05:00:30.719Z,8.36
2022-09-28T05:01:30.838Z,8.35
2022-09-28T05:02:30.704Z,8.36
2022-09-28T05:03:31.662Z,8.36
2022-09-28T05:04:30.758Z,8.37
2022-09-28T05:05:30.761Z,8.37
2022-09-28T05:06:30.780Z,8.39
2022-09-28T05:07:30.621Z,8.37
2022-09-28T05:08:30.650Z,8.37
2022-09-28T05:09:33.013Z,8.37
2022-09-28T05:10:30.571Z,8.37
2022-09-28T05:11:30.670Z,8.40
2022-09-28T05:12:30.548Z,8.42
2022-09-28T05:13:30.578Z,8.42
2022-09-28T05:14:30.590Z,8.42
2022-09-28T05:15:30.621Z,8.40
2022-09-28T05:16:30.752Z,8.40
2022-09-28T05:17:30.480Z,8.39
2022-09-28T05:18:30.511Z,8.39
2022-09-28T05:19:30.521Z,8.39
2022-09-28T05:20:31.471Z,8.39
2022-09-28T05:21:31.471Z,8.37
2022-09-28T05:22:30.415Z,8.39
2022-09-28T05:23:30.453Z,8.39
2022-09-28T05:24:30.452Z,8.40
2022-09-28T05:25:30.491Z,8.42
2022-09-28T05:26:30.462Z,8.45
2022-09-28T05:27:30.352Z,8.45
2022-09-28T05:28:30.395Z,8.47
2022-09-28T05:29:32.451Z,8.48
2022-09-28T05:30:30.423Z,8.50
2022-09-28T05:31:30.450Z,8.48
2022-09-28T05:32:30.282Z,8.50
2022-09-28T05:33:30.312Z,8.48
2022-09-28T05:34:30.317Z,8.48
2022-09-28T05:35:30.271Z,8.50
2022-09-28T05:36:30.243Z,8.50
2022-09-28T05:37:30.223Z,8.51
2022-09-28T05:38:30.241Z,8.50
2022-09-28T05:39:30.253Z,8.53
2022-09-28T05:40:30.344Z,8.51
2022-09-28T05:41:30.288Z,8.53
2022-09-28T05:42:30.262Z,8.53
2022-09-28T05:43:30.176Z,8.51
2022-09-28T05:44:30.173Z,8.51
2022-09-28T05:45:30.282Z,8.51
2022-09-28T05:46:30.263Z,8.51
2022-09-28T05:47:30.231Z,8.50
2022-09-28T05:48:30.104Z,8.51
2022-09-28T05:49:30.114Z,8.51
2022-09-28T05:50:30.114Z,8.48
2022-09-28T05:51:30.157Z,8.50
2022-09-28T05:52:30.194Z,8.50
2022-09-28T05:53:30.038Z,8.50
2022-09-28T05:54:30.045Z,8.50
2022-09-28T05:55:30.107Z,8.50
2022-09-28T05:56:30.079Z,8.51
2022-09-28T05:57:30.064Z,8.50
2022-09-28T05:58:29.955Z,8.50
2022-09-28T05:59:29.978Z,8.50
2022-09-28T06:00:29.975Z,8.51
2022-09-28T06:01:30.083Z,8.51
2022-09-28T06:02:30.077Z,8.51
2022-09-28T06:03:29.907Z,8.50
2022-09-28T06:04:29.906Z,8.51
2022-09-28T06:06:40.100Z,8.54
2022-09-28T06:07:40.069Z,8.53
2022-09-28T06:08:40.070Z,8.55
2022-09-28T06:09:40.083Z,8.57
2022-09-28T06:10:40.082Z,8.57
2022-09-28T06:11:40.028Z,8.57
2022-09-28T06:12:40.148Z,8.57
2022-09-28T06:13:40.011Z,8.60
2022-09-28T06:14:40.027Z,8.60
2022-09-28T06:15:40.023Z,8.60
2022-09-28T06:16:43.695Z,8.62
2022-09-28T06:17:40.038Z,8.63
2022-09-28T06:18:39.921Z,8.66
2022-09-28T06:19:39.908Z,8.68
2022-09-28T06:20:39.950Z,8.71
2022-09-28T06:21:39.990Z,8.75
2022-09-28T06:22:39.971Z,8.75
2022-09-28T06:23:40.579Z,8.71
2022-09-28T06:24:39.850Z,8.72
2022-09-28T06:25:39.910Z,8.73
2022-09-28T06:26:39.936Z,8.78
2022-09-28T06:27:39.811Z,8.83
2022-09-28T06:28:39.799Z,8.84
2022-09-28T06:29:39.801Z,8.88
2022-09-28T06:30:39.887Z,8.91
2022-09-28T06:31:39.853Z,8.93
2022-09-28T06:32:39.841Z,8.94
2022-09-28T06:33:39.843Z,8.94
2022-09-28T06:34:39.740Z,8.96
2022-09-28T06:35:39.744Z,8.97
2022-09-28T06:36:39.691Z,9.04
2022-09-28T06:37:40.683Z,9.06
2022-09-28T06:38:39.652Z,9.10
2022-09-28T06:39:39.644Z,9.13
2022-09-28T06:40:39.682Z,9.18
2022-09-28T06:41:39.620Z,9.20
2022-09-28T06:42:39.634Z,9.23
2022-09-28T06:43:39.582Z,9.21
2022-09-28T06:44:39.764Z,9.18
2022-09-28T06:45:39.572Z,9.16
2022-09-28T06:46:39.687Z,9.20
2022-09-28T06:47:39.646Z,9.23
2022-09-28T06:48:39.523Z,9.24
2022-09-28T06:49:39.602Z,9.23
2022-09-28T06:50:39.647Z,9.21
2022-09-28T06:51:39.524Z,9.24
2022-09-28T06:52:40.494Z,9.25
2022-09-28T06:53:39.600Z,9.28
2022-09-28T06:54:39.464Z,9.27
2022-09-28T06:55:39.473Z,9.30
2022-09-28T06:56:40.415Z,9.30
2022-09-28T06:57:39.425Z,9.27
2022-09-28T06:58:39.425Z,9.30
2022-09-28T06:59:39.469Z,9.31
2022-09-28T07:00:39.509Z,9.32
2022-09-28T07:01:39.435Z,9.38
2022-09-28T07:02:39.546Z,9.43
2022-09-28T07:03:40.347Z,9.39
2022-09-28T07:04:39.390Z,9.45
2022-09-28T07:05:40.422Z,9.48
2022-09-28T07:06:39.275Z,9.52
2022-09-28T07:07:39.320Z,9.50
2022-09-28T07:08:39.258Z,9.52
2022-09-28T07:09:43.721Z,9.56
2022-09-28T07:10:40.352Z,9.60
2022-09-28T07:11:39.325Z,9.66
2022-09-28T07:12:39.229Z,9.67
2022-09-28T07:13:50.362Z,9.70
2022-09-28T07:14:47.922Z,9.66
2022-09-28T07:15:41.221Z,9.64
2022-09-28T07:17:03.290Z,9.60
2022-09-28T07:17:53.843Z,9.60
2022-09-28T07:18:40.229Z,9.63
2022-09-28T07:19:39.178Z,9.60
2022-09-28T07:20:51.659Z,9.57
2022-09-28T07:21:40.078Z,9.60
2022-09-28T07:22:43.506Z,9.58
2022-09-28T07:23:51.742Z,9.58
2022-09-28T07:24:40.140Z,9.61
2022-09-28T07:25:39.120Z,9.56
2022-09-28T07:26:39.140Z,9.53
2022-09-28T07:27:39.030Z,9.56
2022-09-28T07:28:39.070Z,9.57
2022-09-28T07:29:39.067Z,9.61
2022-09-28T07:30:39.142Z,9.64
2022-09-28T07:31:39.070Z,9.68
2022-09-28T07:32:38.937Z,9.71
2022-09-28T07:33:38.984Z,9.76
2022-09-28T07:34:38.910Z,9.78
2022-09-28T07:35:38.897Z,9.78
2022-09-28T07:36:38.890Z,9.73
2022-09-28T07:37:38.869Z,9.71
2022-09-28T07:38:38.870Z,9.70
2022-09-28T07:39:38.850Z,9.73
2022-09-28T07:40:38.899Z,9.78
2022-09-28T07:41:39.819Z,9.81
2022-09-28T07:42:39.801Z,9.83
2022-09-28T07:43:38.810Z,9.86
2022-09-28T07:44:38.780Z,9.83
2022-09-28T07:45:39.904Z,9.85
2022-09-28T07:46:38.757Z,9.81
2022-09-28T07:47:38.763Z,9.78
2022-09-28T07:48:38.749Z,9.78
2022-09-28T07:49:38.711Z,9.79
2022-09-28T07:50:38.702Z,9.76
2022-09-28T07:51:38.704Z,9.75
2022-09-28T07:52:38.680Z,9.75
2022-09-28T07:53:38.702Z,9.76
2022-09-28T07:54:38.673Z,9.76
2022-09-28T07:55:38.653Z,9.76
2022-09-28T07:56:38.631Z,9.71
2022-09-28T07:57:38.613Z,9.66
2022-09-28T07:58:38.603Z,9.64
2022-09-28T07:59:38.593Z,9.68
2022-09-28T08:00:38.591Z,9.71
2022-09-28T08:01:38.668Z,9.66
2022-09-28T08:02:38.634Z,9.67
2022-09-28T08:03:38.555Z,9.68
2022-09-28T08:04:38.544Z,9.70
2022-09-28T08:05:38.522Z,9.70
2022-09-28T08:06:38.513Z,9.73
2022-09-28T08:07:38.491Z,9.76
2022-09-28T08:08:38.493Z,9.75
2022-09-28T08:09:38.464Z,9.81
2022-09-28T08:10:38.498Z,9.70
2022-09-28T08:11:38.487Z,9.57
2022-09-28T08:12:38.424Z,9.48
2022-09-28T08:13:38.439Z,9.46
2022-09-28T08:14:38.384Z,9.45
2022-09-28T08:15:38.394Z,9.35
2022-09-28T08:17:38.365Z,9.25
2022-09-28T08:18:38.347Z,9.27
2022-09-28T08:19:38.334Z,9.18
2022-09-28T08:20:38.313Z,9.20
2022-09-28T08:21:38.306Z,9.21
2022-09-28T08:22:38.294Z,9.12
2022-09-28T08:23:38.301Z,9.10
2022-09-28T08:24:38.264Z,9.10
2022-09-28T08:25:38.301Z,9.13
2022-09-28T08:26:38.238Z,9.13
2022-09-28T08:27:38.225Z,9.13
2022-09-28T08:28:38.226Z,9.05
2022-09-28T08:29:39.222Z,9.05
2022-09-28T08:30:38.207Z,9.06
2022-09-28T08:31:38.198Z,9.06
2022-09-28T08:32:38.164Z,9.13
2022-09-28T08:33:38.145Z,9.16
2022-09-28T08:34:38.135Z,9.12
2022-09-28T08:35:38.125Z,9.10
2022-09-28T08:36:38.106Z,9.16
2022-09-28T08:37:38.096Z,9.21
2022-09-28T08:38:38.077Z,9.23
2022-09-28T08:39:38.090Z,9.27
2022-09-28T08:40:38.107Z,9.30
2022-09-28T08:41:38.056Z,9.27
2022-09-28T08:42:38.029Z,9.27
2022-09-28T08:43:38.020Z,9.25
2022-09-28T08:44:38.033Z,9.30
2022-09-28T08:45:38.030Z,9.32
2022-09-28T08:46:38.028Z,9.43
2022-09-28T08:47:37.963Z,9.49
2022-09-28T08:48:38.065Z,9.58
2022-09-28T08:49:37.937Z,9.63
2022-09-28T08:50:37.935Z,9.61
2022-09-28T08:51:38.111Z,9.63
2022-09-28T08:52:38.065Z,9.64
2022-09-28T08:53:37.886Z,9.61
2022-09-28T08:54:37.930Z,9.66
2022-09-28T08:55:37.896Z,9.64
2022-09-28T08:56:37.877Z,9.71
2022-09-28T08:57:37.839Z,9.76
2022-09-28T08:58:37.817Z,9.82
2022-09-28T08:59:37.891Z,9.81
2022-09-28T09:00:37.788Z,9.78
2022-09-28T09:01:37.892Z,9.82
2022-09-28T09:02:37.810Z,9.81
2022-09-28T09:03:37.759Z,9.96
2022-09-28T09:04:37.771Z,10.14
2022-09-28T09:05:37.742Z,10.22
2022-09-28T09:06:37.728Z,10.28
2022-09-28T09:07:37.810Z,10.65
2022-09-28T09:08:37.696Z,10.98
2022-09-28T09:09:37.692Z,11.25
2022-09-28T09:10:38.744Z,11.52
2022-09-28T09:11:37.652Z,11.68
2022-09-28T09:12:37.634Z,11.87
2022-09-28T09:13:37.628Z,12.11
2022-09-28T09:14:37.662Z,12.38
2022-09-28T09:15:37.613Z,12.63
2022-09-28T09:16:37.671Z,12.71
2022-09-28T09:17:37.573Z,12.54
2022-09-28T09:18:37.565Z,12.51
2022-09-28T09:19:37.553Z,12.66
2022-09-28T09:20:37.618Z,12.64
2022-09-28T09:21:37.524Z,12.63
2022-09-28T09:22:37.515Z,12.67
2022-09-28T09:23:37.574Z,12.84
2022-09-28T09:24:37.483Z,13.04
2022-09-28T09:25:38.598Z,13.14
2022-09-28T09:26:39.524Z,13.15
2022-09-28T09:27:37.581Z,12.96
2022-09-28T09:28:37.485Z,12.78
2022-09-28T09:29:37.414Z,12.84
2022-09-28T09:30:37.474Z,12.57
2022-09-28T09:31:37.387Z,12.54
2022-09-28T09:32:58.379Z,12.56
2022-09-28T09:33:37.394Z,12.63
2022-09-28T09:34:37.397Z,12.56
2022-09-28T09:35:37.345Z,12.52
2022-09-28T09:36:37.319Z,12.64
2022-09-28T09:37:37.316Z,12.64
2022-09-28T09:38:37.329Z,12.74
2022-09-28T09:39:37.285Z,12.79
2022-09-28T09:40:37.410Z,12.82
2022-09-28T09:41:37.263Z,12.95
2022-09-28T09:42:37.245Z,13.02
2022-09-28T09:43:37.229Z,12.84
2022-09-28T09:44:37.276Z,12.97
2022-09-28T09:45:37.349Z,13.18
2022-09-28T09:46:37.307Z,13.27
2022-09-28T09:47:37.194Z,13.27
2022-09-28T10:03:55.748Z,13.22
2022-09-28T10:04:55.710Z,13.24
2022-09-28T10:05:55.770Z,13.37
2022-09-28T10:06:55.749Z,13.43
2022-09-28T10:07:55.759Z,13.54
2022-09-28T10:08:55.779Z,13.58
2022-09-28T10:09:55.659Z,13.65
2022-09-28T10:10:55.718Z,13.61
2022-09-28T10:11:55.630Z,13.69
2022-09-28T10:12:55.619Z,13.92
2022-09-28T10:13:56.720Z,14.27
2022-09-28T10:14:55.611Z,14.19
2022-09-28T10:15:55.650Z,14.07
2022-09-28T10:16:55.684Z,13.88
2022-09-28T10:17:55.641Z,14.09
2022-09-28T10:18:55.641Z,14.49
2022-09-28T10:19:56.562Z,14.94
2022-09-28T10:20:55.521Z,14.98
2022-09-28T10:21:55.501Z,15.26
2022-09-28T10:22:55.482Z,15.67
2022-09-28T10:23:55.562Z,15.66
2022-09-28T10:24:55.582Z,15.66
2022-09-28T10:25:55.453Z,15.33
2022-09-28T10:26:55.431Z,15.23
2022-09-28T10:27:55.425Z,15.13
2022-09-28T10:28:55.412Z,15.24
2022-09-28T10:29:55.503Z,15.61
2022-09-28T10:30:55.447Z,15.23
2022-09-28T10:31:55.363Z,14.94
2022-09-28T10:32:55.365Z,14.65
2022-09-28T10:33:55.344Z,14.38
2022-09-28T10:34:55.432Z,14.06
2022-09-28T10:35:55.368Z,13.69
2022-09-28T10:36:55.354Z,13.59
2022-09-28T10:37:55.292Z,14.14
2022-09-28T10:38:55.354Z,14.64
2022-09-28T10:39:55.364Z,15.20
2022-09-28T10:40:55.397Z,15.68
2022-09-28T10:41:55.245Z,16.06
2022-09-28T10:42:55.313Z,16.38
2022-09-28T10:43:58.040Z,16.88
2022-09-28T10:44:55.288Z,17.13
2022-09-28T10:45:55.331Z,16.90
2022-09-28T10:46:55.165Z,16.34
2022-09-28T10:47:55.216Z,15.60
2022-09-28T10:48:55.225Z,15.15
2022-09-28T10:49:55.226Z,15.02
2022-09-28T10:50:55.158Z,14.61
2022-09-28T10:51:55.097Z,14.32
2022-09-28T10:52:55.152Z,14.12
2022-09-28T10:53:55.095Z,14.09
2022-09-28T10:54:55.156Z,14.47
2022-09-28T10:55:55.087Z,14.56
2022-09-28T10:56:55.072Z,15.59
2022-09-28T10:57:55.080Z,16.48
2022-09-28T10:58:56.111Z,17.25
2022-09-28T10:59:55.091Z,17.36
2022-09-28T11:00:55.051Z,17.08
2022-09-28T11:01:55.013Z,16.90
2022-09-28T11:02:55.043Z,17.07
2022-09-28T11:03:56.029Z,16.35
2022-09-28T11:04:55.939Z,15.78
2022-09-28T11:05:54.959Z,15.15
2022-09-28T11:06:54.957Z,14.94
2022-09-28T11:07:54.879Z,14.60
2022-09-28T11:08:55.083Z,14.34
2022-09-28T11:09:54.999Z,13.95
2022-09-28T11:10:54.979Z,15.20
2022-09-28T11:11:54.880Z,16.27
2022-09-28T11:12:54.850Z,16.42
2022-09-28T11:13:54.900Z,17.33
2022-09-28T11:14:54.988Z,18.43
2022-09-28T11:15:54.911Z,19.11
2022-09-28T11:16:55.087Z,20.30
2022-09-28T11:17:54.802Z,21.34
2022-09-28T11:18:54.810Z,21.26
2022-09-28T11:19:54.821Z,21.66
2022-09-28T11:20:54.711Z,21.98
2022-09-28T11:21:54.702Z,22.75
2022-09-28T11:22:54.682Z,22.96
2022-09-28T11:23:54.752Z,23.02
2022-09-28T11:24:54.746Z,23.24
2022-09-28T11:25:54.683Z,23.35
2022-09-28T11:26:54.794Z,23.29
2022-09-28T11:27:54.666Z,22.32
2022-09-28T11:28:54.643Z,21.76
2022-09-28T11:29:54.973Z,22.35
2022-09-28T11:30:55.805Z,22.64
2022-09-28T11:31:54.833Z,23.07
2022-09-28T11:32:54.735Z,22.52
2022-09-28T11:33:54.617Z,21.66
2022-09-28T11:34:59.665Z,21.98
2022-09-28T11:35:55.822Z,21.76
2022-09-28T11:36:58.371Z,21.44
2022-09-28T11:37:55.497Z,21.59
2022-09-28T11:38:54.477Z,21.30
2022-09-28T11:39:54.547Z,21.35
2022-09-28T11:40:54.570Z,21.63
2022-09-28T11:41:54.443Z,20.35
2022-09-28T11:42:54.473Z,19.75
2022-09-28T11:43:54.508Z,18.47
2022-09-28T11:44:54.602Z,17.48
2022-09-28T11:45:54.697Z,16.42
2022-09-28T11:46:54.555Z,15.97
2022-09-28T11:47:54.359Z,15.74
2022-09-28T11:48:54.401Z,15.49
2022-09-28T11:49:54.341Z,15.12
2022-09-28T11:50:54.350Z,14.67
2022-09-28T11:51:54.322Z,14.52
2022-09-28T11:52:54.356Z,14.34
2022-09-28T11:53:55.372Z,14.25
2022-09-28T11:54:54.269Z,14.17
2022-09-28T11:55:54.293Z,14.17
2022-09-28T11:56:54.274Z,14.16
2022-09-28T11:57:54.231Z,14.13
2022-09-28T11:58:54.213Z,14.16
2022-09-28T11:59:54.203Z,14.09
2022-09-28T12:00:54.224Z,13.88
2022-09-28T12:01:54.258Z,13.88
2022-09-28T12:02:54.527Z,13.74
2022-09-28T12:03:55.107Z,13.59
2022-09-28T12:04:54.736Z,13.49
2022-09-28T12:05:54.246Z,13.47
2022-09-28T12:06:55.101Z,13.52
2022-09-28T12:07:54.407Z,13.61
2022-09-28T12:08:54.916Z,13.49
2022-09-28T12:09:54.825Z,13.36
2022-09-28T12:10:54.238Z,13.11
2022-09-28T12:11:54.059Z,13.06
2022-09-28T12:12:54.027Z,13.04
2022-09-28T12:13:54.027Z,13.15
2022-09-28T12:14:54.096Z,13.29
2022-09-28T12:16:23.019Z,13.84
2022-09-28T12:17:11.273Z,14.75
2022-09-28T12:17:55.005Z,15.17
2022-09-28T12:18:54.691Z,15.08
2022-09-28T12:19:54.955Z,14.65
2022-09-28T12:20:54.108Z,14.39
2022-09-28T12:21:54.849Z,14.39
2022-09-28T12:22:55.997Z,14.67
2022-09-28T12:23:54.958Z,16.11
2022-09-28T12:24:54.300Z,17.46
2022-09-28T12:25:53.957Z,18.31
2022-09-28T12:27:15.098Z,19.40
2022-09-28T12:27:53.832Z,20.39
2022-09-28T12:28:53.819Z,20.68
2022-09-28T12:29:53.799Z,21.39
2022-09-28T12:30:53.997Z,22.44
2022-09-28T12:31:53.887Z,23.50
2022-09-28T12:32:53.801Z,24.23
2022-09-28T12:33:53.801Z,23.76
2022-09-28T12:34:53.754Z,23.75
2022-09-28T12:35:53.975Z,23.72
2022-09-28T12:36:53.712Z,24.20
2022-09-28T12:38:16.834Z,24.77
2022-09-28T12:39:08.750Z,25.19
2022-09-28T12:39:58.032Z,25.30
2022-09-28T12:40:54.718Z,23.75
2022-09-28T12:41:53.974Z,23.86
2022-09-28T12:42:54.008Z,24.07
2022-09-28T12:43:53.666Z,23.86
2022-09-28T12:44:57.225Z,22.92
2022-09-28T12:46:11.042Z,22.19
2022-09-28T12:46:54.814Z,22.12
2022-09-28T12:47:53.653Z,22.04
2022-09-28T12:49:36.729Z,21.90
2022-09-28T12:50:57.528Z,20.51
2022-09-28T12:51:53.617Z,20.09
2022-09-28T12:52:53.507Z,20.47
2022-09-28T12:53:53.527Z,20.08
2022-09-28T12:54:53.667Z,19.55
2022-09-28T12:55:54.612Z,19.08
2022-09-28T12:56:54.367Z,18.61
2022-09-28T12:57:53.508Z,18.43
2022-09-28T12:58:53.600Z,18.46
2022-09-28T12:59:53.459Z,18.02
2022-09-28T13:00:55.090Z,17.67
2022-09-28T13:01:53.715Z,17.41
2022-09-28T13:02:53.591Z,17.40
2022-09-28T13:03:53.391Z,17.11
2022-09-28T13:04:53.412Z,17.00
2022-09-28T13:05:54.472Z,16.80
2022-09-28T13:06:53.695Z,16.56
2022-09-28T13:07:53.665Z,16.33
2022-09-28T13:08:54.360Z,16.20
2022-09-28T13:09:53.314Z,15.84
2022-09-28T13:10:53.293Z,15.38
2022-09-28T13:11:54.373Z,15.72
2022-09-28T13:12:53.717Z,16.06
2022-09-28T13:13:54.033Z,16.33
2022-09-28T13:14:54.257Z,16.27
2022-09-28T13:15:53.358Z,16.23
2022-09-28T13:16:58.389Z,16.12
2022-09-28T13:17:54.212Z,16.23
2022-09-28T13:18:53.185Z,15.99
2022-09-28T13:19:53.198Z,16.00
2022-09-28T13:20:53.237Z,16.12
2022-09-28T13:21:53.126Z,16.07
2022-09-28T13:22:53.116Z,16.20
2022-09-28T13:23:57.863Z,16.11
2022-09-28T13:24:54.220Z,16.18
2022-09-28T13:25:53.350Z,16.25
2022-09-28T13:26:53.158Z,16.14
2022-09-28T13:27:53.065Z,16.00
2022-09-28T13:28:53.159Z,15.93
2022-09-28T13:29:54.289Z,15.79
2022-09-28T13:30:53.229Z,15.78
2022-09-28T13:31:53.083Z,15.67
2022-09-28T13:32:53.340Z,15.54
2022-09-28T13:33:52.988Z,15.33
2022-09-28T13:34:52.970Z,15.03
2022-09-28T13:35:52.972Z,14.80
2022-09-28T13:36:52.951Z,14.98
2022-09-28T13:37:55.243Z,15.31
2022-09-28T13:38:52.923Z,15.54
2022-09-28T13:39:53.066Z,15.76
2022-09-28T13:40:54.157Z,15.63